Time;durP1;ratioP1;P1;durP2;ratioP2;P2;SDS_P1;SDS_P2;PMS_P1;PMS_P2;Temp;Humidity;BMP_temperature;BMP_pressure;BME280_temperature;BME280_humidity;BME280_pressure;Samples;Min_cycle;Max_cycle;Signal;HPM_P1;HPM_P2
2021/01/06 00:01:22;;;;;;;10.87;7.97;;;;;;;0.64;95.94;99313.94;1751687;81;25678;-68
2021/01/06 00:03:49;;;;;;;11.83;8.70;;;;;;;0.67;95.85;99320.28;1738370;81;25291;-67
2021/01/06 00:06:17;;;;;;;12.47;9.07;;;;;;;0.67;95.81;99315.10;1754014;81;25227;-68
2021/01/06 00:08:44;;;;;;;12.27;8.80;;;;;;;0.67;95.81;99319.41;1753946;81;25086;-68
2021/01/06 00:11:12;;;;;;;11.87;8.80;;;;;;;0.66;95.80;99321.17;1728354;81;25213;-68
2021/01/06 00:13:39;;;;;;;12.90;8.30;;;;;;;0.69;95.77;99323.64;1754073;81;25129;-68
2021/01/06 00:16:06;;;;;;;12.20;8.83;;;;;;;0.69;95.64;99323.64;1753987;81;25568;-68
2021/01/06 00:18:32;;;;;;;12.50;9.07;;;;;;;0.69;95.62;99331.41;1754085;81;25296;-68
2021/01/06 00:20:59;;;;;;;13.27;9.50;;;;;;;0.72;95.60;99326.53;1753971;81;25338;-68
2021/01/06 00:23:26;;;;;;;12.23;8.40;;;;;;;0.71;95.54;99324.41;1753998;81;25173;-67
2021/01/06 00:25:53;;;;;;;18.40;11.17;;;;;;;0.69;95.57;99323.64;1753898;81;25679;-67
2021/01/06 00:28:20;;;;;;;22.27;12.83;;;;;;;0.71;95.65;99328.75;1754066;81;25291;-67
2021/01/06 00:30:55;;;;;;;17.83;10.40;;;;;;;0.72;95.66;99326.53;1757394;81;25129;-68
2021/01/06 00:33:24;;;;;;;18.50;11.03;;;;;;;0.77;95.74;99328.47;1757416;81;25224;-67
2021/01/06 00:35:55;;;;;;;13.10;9.03;;;;;;;0.77;95.78;99328.47;1757525;81;25149;-67
2021/01/06 00:38:30;;;;;;;13.70;8.53;;;;;;;0.90;95.92;99332.23;1849814;76;26779;-67
2021/01/06 00:40:56;;;;;;;21.30;11.23;;;;;;;0.88;95.68;99334.51;1819780;78;25325;-67
2021/01/06 00:43:23;;;;;;;21.20;11.23;;;;;;;0.91;95.74;99336.97;1819793;77;25710;-68
2021/01/06 00:45:50;;;;;;;16.97;9.27;;;;;;;0.94;95.55;99335.55;1819619;77;25203;-69
2021/01/06 00:48:17;;;;;;;16.80;10.73;;;;;;;0.93;95.54;99337.74;1819746;78;25176;-68
2021/01/06 00:50:44;;;;;;;17.60;10.30;;;;;;;0.93;95.46;99332.56;1774212;79;25684;-67
2021/01/06 00:53:24;;;;;;;17.00;11.33;;;;;;;0.93;95.52;99338.58;1787666;79;25241;-67
2021/01/06 00:55:52;;;;;;;13.40;9.50;;;;;;;0.96;95.47;99344.09;1787533;79;25158;-68
2021/01/06 00:58:20;;;;;;;13.07;8.67;;;;;;;0.98;95.46;99338.85;1787361;79;25206;-68
2021/01/06 01:00:48;;;;;;;13.87;8.83;;;;;;;1.01;95.65;99346.03;1756899;80;25071;-68
2021/01/06 01:03:15;;;;;;;9.93;8.17;;;;;;;1.05;95.44;99347.56;1787532;79;25111;-67
2021/01/06 01:05:45;;;;;;;16.77;10.50;;;;;;;1.06;95.31;99355.73;1756962;80;25174;-67
2021/01/06 01:08:12;;;;;;;11.37;8.23;;;;;;;1.05;95.32;99348.86;1787468;79;25340;-67
2021/01/06 01:10:49;;;;;;;13.33;9.07;;;;;;;1.09;95.24;99350.43;1787459;80;25307;-68
2021/01/06 01:13:20;;;;;;;15.67;10.37;;;;;;;1.06;95.18;99351.02;1787508;80;25293;-67
2021/01/06 01:15:50;;;;;;;17.57;10.50;;;;;;;1.06;95.12;99352.31;1787511;79;25278;-68
2021/01/06 01:18:19;;;;;;;14.47;8.90;;;;;;;1.05;95.10;99353.21;1786635;79;25716;-68
2021/01/06 01:20:50;;;;;;;13.43;9.00;;;;;;;1.06;95.19;99349.27;1787560;79;25705;-68
2021/01/06 01:23:18;;;;;;;11.90;8.10;;;;;;;1.08;95.13;99353.08;1787078;80;25749;-68
2021/01/06 01:25:45;;;;;;;11.50;8.13;;;;;;;1.11;95.23;99356.38;1787497;80;25265;-69
2021/01/06 01:28:13;;;;;;;10.87;7.63;;;;;;;1.16;95.17;99351.44;1787440;80;25714;-70
2021/01/06 01:30:40;;;;;;;13.77;8.97;;;;;;;1.19;95.13;99353.91;1787547;79;25197;-68
2021/01/06 01:33:07;;;;;;;18.20;9.90;;;;;;;1.21;95.09;99353.41;1787436;80;25060;-68
2021/01/06 01:35:34;;;;;;;17.87;11.27;;;;;;;1.20;95.00;99356.43;1787390;79;25611;-67
2021/01/06 01:38:03;;;;;;;13.67;9.13;;;;;;;1.18;94.86;99352.23;1787378;79;25684;-67
2021/01/06 01:40:37;;;;;;;15.50;9.83;;;;;;;1.18;94.87;99358.72;1787493;80;25727;-68
2021/01/06 01:43:08;;;;;;;14.50;10.03;;;;;;;1.18;94.87;99353.53;1787417;79;25071;-68
2021/01/06 01:45:52;;;;;;;15.33;10.40;;;;;;;1.20;94.83;99354.30;1787465;79;25785;-68
2021/01/06 01:48:36;;;;;;;11.03;8.30;;;;;;;1.18;94.65;99356.95;1787189;80;25352;-68
2021/01/06 01:51:29;;;;;;;13.70;9.73;;;;;;;1.17;94.79;99354.43;1786797;79;25321;-67
2021/01/06 01:54:11;;;;;;;12.40;8.73;;;;;;;1.25;94.82;99351.89;1818385;78;27539;-67
2021/01/06 01:57:14;;;;;;;12.83;8.93;;;;;;;1.18;94.72;99348.35;1789558;80;25216;-67
2021/01/06 01:59:49;;;;;;;13.13;8.50;;;;;;;1.15;94.62;99341.54;1784496;80;25264;-67
2021/01/06 02:03:14;;;;;;;24.43;13.80;;;;;;;1.14;94.44;99340.31;1789521;80;25972;-67
2021/01/06 02:05:58;;;;;;;12.47;9.00;;;;;;;1.09;94.39;99338.77;1789502;79;25255;-68
2021/01/06 02:08:39;;;;;;;12.43;8.67;;;;;;;1.06;94.40;99339.36;1774222;80;25304;-67
2021/01/06 02:11:22;;;;;;;10.83;8.17;;;;;;;1.07;94.47;99334.12;1789251;79;25615;-67
2021/01/06 02:13:57;;;;;;;15.33;10.23;;;;;;;1.06;94.58;99336.31;1789344;79;25324;-67
2021/01/06 02:16:35;;;;;;;10.83;7.70;;;;;;;1.10;94.79;99331.84;1789477;79;25280;-67
2021/01/06 02:19:03;;;;;;;9.23;7.90;;;;;;;1.14;94.73;99335.12;1772043;79;25720;-67
2021/01/06 02:21:30;;;;;;;10.83;7.17;;;;;;;1.14;94.75;99335.12;1789392;79;25288;-68
2021/01/06 02:23:57;;;;;;;10.20;7.63;;;;;;;1.14;94.62;99326.92;1789451;79;25332;-67
2021/01/06 02:26:26;;;;;;;10.53;7.73;;;;;;;1.14;94.73;99328.22;1789555;79;25245;-68
2021/01/06 02:28:53;;;;;;;9.70;7.50;;;;;;;1.15;94.75;99332.47;1789294;79;25281;-67
2021/01/06 02:31:19;;;;;;;9.60;7.40;;;;;;;1.22;94.87;99333.05;1757573;80;25327;-67
2021/01/06 02:33:48;;;;;;;10.17;7.53;;;;;;;1.23;94.65;99332.16;1761163;81;25330;-67
2021/01/06 02:36:15;;;;;;;14.03;9.47;;;;;;;1.25;94.74;99325.14;1788785;79;25335;-67
2021/01/06 02:38:42;;;;;;;11.03;7.70;;;;;;;1.26;94.77;99323.78;1757615;80;25762;-67
2021/01/06 02:41:10;;;;;;;14.97;8.70;;;;;;;1.29;94.70;99323.66;1761021;81;25334;-67
2021/01/06 02:43:37;;;;;;;8.80;6.50;;;;;;;1.28;94.53;99319.83;1733789;81;25698;-67
2021/01/06 02:46:03;;;;;;;8.03;6.90;;;;;;;1.27;94.46;99315.55;1788841;80;25227;-67
2021/01/06 02:48:30;;;;;;;20.03;10.33;;;;;;;1.26;94.59;99307.41;1757708;80;25265;-67
2021/01/06 02:51:01;;;;;;;9.20;7.10;;;;;;;1.28;94.49;99309.47;1744978;81;25807;-67
2021/01/06 02:53:59;;;;;;;29.20;13.93;;;;;;;1.31;94.59;99313.22;1756018;81;25212;-67
2021/01/06 02:56:26;;;;;;;26.00;13.57;;;;;;;1.35;94.44;99312.63;1757305;81;25710;-68
2021/01/06 02:58:53;;;;;;;13.97;9.63;;;;;;;1.32;94.25;99324.42;1757337;81;25377;-66
2021/01/06 03:01:23;;;;;;;12.17;8.77;;;;;;;1.31;94.39;99323.59;1757242;81;25335;-67
2021/01/06 03:03:53;;;;;;;10.43;7.70;;;;;;;1.33;94.38;99318.34;1757185;81;25718;-67
2021/01/06 03:06:31;;;;;;;14.77;9.10;;;;;;;1.33;94.19;99317.88;1702661;81;25224;-67
2021/01/06 03:08:58;;;;;;;14.13;8.97;;;;;;;1.31;94.26;99330.06;1755512;81;25857;-67
2021/01/06 03:11:25;;;;;;;12.70;9.30;;;;;;;1.31;94.21;99323.59;1756796;81;25331;-67
2021/01/06 03:13:51;;;;;;;11.47;8.37;;;;;;;1.32;94.18;99322.66;1756874;81;25279;-67
2021/01/06 03:16:18;;;;;;;9.70;7.30;;;;;;;1.32;94.25;99328.30;1731164;81;25304;-67
2021/01/06 03:18:45;;;;;;;9.50;7.23;;;;;;;1.34;94.39;99322.16;1731228;81;25212;-67
2021/01/06 03:21:11;;;;;;;9.50;7.00;;;;;;;1.40;94.24;99321.87;1756881;81;25216;-67
2021/01/06 03:23:44;;;;;;;9.83;7.47;;;;;;;1.38;94.12;99322.86;1756753;81;25792;-67
2021/01/06 03:26:15;;;;;;;7.97;7.03;;;;;;;1.38;94.11;99327.58;1756790;81;25285;-67
2021/01/06 03:28:42;;;;;;;9.97;7.17;;;;;;;1.35;94.22;99321.23;1756845;81;25216;-67
2021/01/06 03:31:13;;;;;;;8.73;6.50;;;;;;;1.37;94.23;99314.22;1756921;81;25247;-67
2021/01/06 03:33:57;;;;;;;9.57;7.33;;;;;;;1.37;94.24;99316.81;1703480;81;25718;-67
2021/01/06 03:36:27;;;;;;;11.50;7.40;;;;;;;1.39;94.30;99310.27;1754819;81;25777;-67
2021/01/06 03:39:04;;;;;;;8.07;6.93;;;;;;;1.43;94.29;99313.96;1756931;81;25204;-67
2021/01/06 03:41:31;;;;;;;9.93;7.53;;;;;;;1.43;94.18;99314.42;1756853;81;25469;-67
2021/01/06 03:44:03;;;;;;;12.60;8.90;;;;;;;1.42;94.26;99315.33;1702646;81;25274;-67
2021/01/06 03:46:36;;;;;;;10.83;7.93;;;;;;;1.43;94.20;99324.33;1727611;81;25777;-67
2021/01/06 03:49:14;;;;;;;10.53;8.13;;;;;;;1.43;94.22;99317.02;1707536;81;25458;-68
2021/01/06 03:51:45;;;;;;;9.63;7.57;;;;;;;1.43;94.18;99319.14;1743691;81;25672;-68
2021/01/06 03:54:44;;;;;;;11.13;7.50;;;;;;;1.43;94.28;99313.96;1754309;81;25206;-67
2021/01/06 03:57:11;;;;;;;10.37;7.80;;;;;;;1.47;94.27;99321.14;1696835;81;25285;-68
2021/01/06 03:59:39;;;;;;;10.50;7.93;;;;;;;1.44;94.08;99317.38;1753635;81;25311;-67
2021/01/06 04:02:27;;;;;;;9.80;7.90;;;;;;;1.41;94.07;99320.14;1726116;81;25707;-67
2021/01/06 04:05:10;;;;;;;9.03;7.70;;;;;;;1.43;94.23;99322.20;1753698;81;25090;-67
2021/01/06 04:07:44;;;;;;;10.40;7.53;;;;;;;1.45;94.21;99319.08;1753668;81;25335;-68
2021/01/06 04:10:15;;;;;;;10.63;8.03;;;;;;;1.46;94.19;99320.77;1753553;81;25285;-67
2021/01/06 04:12:42;;;;;;;11.27;8.30;;;;;;;1.45;94.27;99326.39;1753575;81;25643;-68
2021/01/06 04:15:11;;;;;;;10.27;8.00;;;;;;;1.46;94.15;99317.72;1753694;81;25380;-67
2021/01/06 04:17:40;;;;;;;11.33;8.20;;;;;;;1.43;94.07;99312.66;1753628;81;25304;-67
2021/01/06 04:20:32;;;;;;;11.03;8.17;;;;;;;1.44;94.16;99318.25;1726244;81;25418;-67
2021/01/06 04:23:03;;;;;;;10.57;8.43;;;;;;;1.45;94.21;99323.80;1753565;81;25299;-68
2021/01/06 04:25:33;;;;;;;9.43;8.10;;;;;;;1.45;94.13;99324.27;1753107;81;25724;-67
2021/01/06 04:28:11;;;;;;;10.23;7.90;;;;;;;1.44;94.24;99318.25;1753587;81;25161;-68
2021/01/06 04:30:46;;;;;;;10.47;8.13;;;;;;;1.44;94.20;99324.72;1753750;81;25212;-68
2021/01/06 04:33:26;;;;;;;9.47;8.00;;;;;;;1.43;94.23;99321.73;1753660;81;25310;-67
2021/01/06 04:35:54;;;;;;;10.33;7.90;;;;;;;1.45;94.24;99330.27;1753702;81;25228;-67
2021/01/06 04:38:25;;;;;;;10.40;8.77;;;;;;;1.44;94.13;99328.61;1753666;81;25248;-67
2021/01/06 04:40:59;;;;;;;9.73;8.40;;;;;;;1.41;94.10;99331.34;1753147;81;25228;-67
2021/01/06 04:43:59;;;;;;;11.90;8.90;;;;;;;1.36;94.14;99330.70;1750970;81;25286;-67
2021/01/06 04:47:06;;;;;;;8.90;7.60;;;;;;;1.38;94.12;99326.28;1753348;81;25734;-67
2021/01/06 04:50:01;;;;;;;8.27;7.07;;;;;;;1.38;94.30;99328.05;1753528;81;25181;-67
2021/01/06 04:53:01;;;;;;;10.00;8.10;;;;;;;1.36;94.05;99321.63;1723242;81;25185;-67
2021/01/06 04:55:54;;;;;;;9.80;7.60;;;;;;;1.30;94.08;99331.80;1753520;81;25742;-68
2021/01/06 04:58:29;;;;;;;10.07;8.27;;;;;;;1.29;94.09;99337.04;1753646;81;25232;-67
2021/01/06 05:01:52;;;;;;;14.30;10.03;;;;;;;1.24;94.24;99334.68;1753460;81;25618;-68
2021/01/06 05:04:47;;;;;;;15.47;10.97;;;;;;;1.24;94.21;99332.09;1753544;81;25239;-67
2021/01/06 05:07:51;;;;;;;11.80;8.60;;;;;;;1.18;94.19;99337.52;1753602;81;25743;-67
2021/01/06 05:10:32;;;;;;;11.27;8.23;;;;;;;1.18;94.30;99344.00;1753615;81;25308;-67
2021/01/06 05:13:33;;;;;;;11.90;8.77;;;;;;;1.18;94.37;99343.17;1753571;81;25280;-67
2021/01/06 05:16:11;;;;;;;16.37;10.57;;;;;;;1.19;94.50;99336.63;1753709;81;25295;-66
2021/01/06 05:18:39;;;;;;;21.30;13.90;;;;;;;1.24;94.48;99341.59;1721968;81;25239;-67
2021/01/06 05:21:17;;;;;;;18.33;12.00;;;;;;;1.23;94.53;99342.05;1721955;81;25628;-67
2021/01/06 05:23:44;;;;;;;22.17;12.43;;;;;;;1.24;94.59;99341.16;1753570;81;25339;-66
2021/01/06 05:26:11;;;;;;;22.50;12.87;;;;;;;1.26;94.60;99341.09;1753623;81;25354;-66
2021/01/06 05:28:37;;;;;;;15.40;9.50;;;;;;;1.29;94.62;99344.38;1753541;81;25737;-67
2021/01/06 05:31:04;;;;;;;13.33;8.97;;;;;;;1.32;94.64;99342.09;1753491;81;25331;-67
2021/01/06 05:33:35;;;;;;;12.07;8.80;;;;;;;1.32;94.53;99340.80;1753496;81;25707;-67
2021/01/06 05:36:02;;;;;;;11.90;8.20;;;;;;;1.34;94.55;99345.48;1753611;81;25283;-67
2021/01/06 05:38:29;;;;;;;19.30;11.17;;;;;;;1.36;94.49;99352.73;1753564;81;25714;-66
2021/01/06 05:40:55;;;;;;;20.83;11.77;;;;;;;1.36;94.45;99351.44;1753543;81;25224;-66
2021/01/06 05:43:38;;;;;;;28.57;13.57;;;;;;;1.34;94.38;99349.80;1753511;81;25204;-67
2021/01/06 05:46:03;;;;;;;22.77;11.93;;;;;;;1.35;94.43;99351.03;1753069;81;25276;-67
2021/01/06 05:48:54;;;;;;;15.23;9.97;;;;;;;1.36;94.49;99355.32;1753507;81;25292;-67
2021/01/06 05:51:34;;;;;;;15.10;9.00;;;;;;;1.36;94.44;99347.55;1753529;81;25773;-67
2021/01/06 05:54:06;;;;;;;19.20;10.20;;;;;;;1.37;94.50;99349.20;1753451;81;25288;-67
2021/01/06 05:57:10;;;;;;;46.03;19.50;;;;;;;1.40;94.47;99348.25;1751703;81;25259;-67
2021/01/06 05:59:52;;;;;;;42.33;18.90;;;;;;;1.38;94.37;99352.66;1753487;81;25343;-67
2021/01/06 06:02:45;;;;;;;26.80;13.63;;;;;;;1.39;94.49;99353.03;1753473;81;25196;-67
2021/01/06 06:05:37;;;;;;;22.27;11.57;;;;;;;1.38;94.44;99354.79;1753766;81;25288;-68
2021/01/06 06:08:15;;;;;;;25.07;13.57;;;;;;;1.43;94.55;99360.61;1726169;81;25256;-67
2021/01/06 06:10:54;;;;;;;24.10;13.63;;;;;;;1.43;94.40;99362.37;1753386;81;25150;-67
2021/01/06 06:14:02;;;;;;;28.60;14.77;;;;;;;1.41;94.41;99365.02;1753433;81;25213;-67
2021/01/06 06:16:51;;;;;;;27.33;15.53;;;;;;;1.42;94.37;99366.69;1691310;83;25623;-67
2021/01/06 06:19:57;;;;;;;15.37;10.03;;;;;;;1.39;94.39;99361.67;1753641;81;25331;-67
2021/01/06 06:22:38;;;;;;;24.23;15.47;;;;;;;1.40;94.32;99360.73;1752856;81;25158;-67
2021/01/06 06:25:31;;;;;;;31.10;16.40;;;;;;;1.43;94.50;99359.78;1753487;81;25517;-67
2021/01/06 06:28:09;;;;;;;40.97;19.77;;;;;;;1.50;94.60;99368.13;1756415;81;25144;-68
2021/01/06 06:30:55;;;;;;;24.60;15.30;;;;;;;1.47;94.28;99366.06;1752206;81;25240;-68
2021/01/06 06:33:29;;;;;;;14.67;10.87;;;;;;;1.46;94.24;99365.66;1760159;81;25161;-68
2021/01/06 06:35:56;;;;;;;24.70;15.43;;;;;;;1.44;94.17;99366.19;1760151;81;25102;-68
2021/01/06 06:38:40;;;;;;;12.70;9.83;;;;;;;1.36;94.12;99364.82;1760097;81;25296;-68
2021/01/06 06:41:24;;;;;;;15.00;10.53;;;;;;;1.34;94.24;99362.76;1759920;81;25133;-68
2021/01/06 06:44:14;;;;;;;11.23;9.43;;;;;;;1.30;94.24;99362.05;1760399;81;25137;-67
2021/01/06 06:47:06;;;;;;;14.87;10.70;;;;;;;1.26;94.27;99359.23;1760417;81;25173;-69
2021/01/06 06:49:54;;;;;;;11.50;8.60;;;;;;;1.24;94.32;99367.06;1788001;79;25268;-68
2021/01/06 06:52:32;;;;;;;11.80;8.93;;;;;;;1.24;94.44;99363.61;1756761;81;25674;-67
2021/01/06 06:55:13;;;;;;;9.53;7.90;;;;;;;1.28;94.62;99375.54;1756761;81;25688;-67
2021/01/06 06:57:46;;;;;;;12.00;10.10;;;;;;;1.27;94.58;99368.66;1756806;81;25149;-68
2021/01/06 07:00:20;;;;;;;14.87;12.43;;;;;;;1.27;94.51;99372.55;1756127;81;25294;-68
2021/01/06 07:02:59;;;;;;;11.10;9.23;;;;;;;1.24;94.51;99379.16;1756815;81;25651;-69
2021/01/06 07:05:44;;;;;;;12.63;9.47;;;;;;;1.22;94.53;99388.75;1756758;81;25323;-68
2021/01/06 07:08:20;;;;;;;11.80;10.17;;;;;;;1.24;94.73;99378.72;1756830;81;25311;-67
2021/01/06 07:11:00;;;;;;;12.30;9.90;;;;;;;1.27;94.69;99386.80;1756757;81;25088;-68
2021/01/06 07:13:27;;;;;;;12.23;9.37;;;;;;;1.28;94.64;99386.73;1756871;81;25152;-67
2021/01/06 07:16:00;;;;;;;12.23;9.80;;;;;;;1.27;94.56;99389.39;1731306;81;25717;-67
2021/01/06 07:18:47;;;;;;;14.60;11.00;;;;;;;1.24;94.52;99385.20;1756741;81;25156;-67
2021/01/06 07:21:22;;;;;;;15.43;10.57;;;;;;;1.23;94.54;99383.50;1756213;81;25591;-68
2021/01/06 07:24:10;;;;;;;14.50;10.30;;;;;;;1.25;94.57;99388.16;1756737;81;25509;-68
2021/01/06 07:26:57;;;;;;;15.00;10.67;;;;;;;1.27;94.55;99394.57;1754227;81;25614;-68
2021/01/06 07:29:30;;;;;;;14.60;10.50;;;;;;;1.26;94.46;99392.91;1751513;82;25639;-68
2021/01/06 07:32:01;;;;;;;12.70;9.77;;;;;;;1.24;94.46;99390.81;1750657;81;25144;-68
2021/01/06 07:34:51;;;;;;;11.30;9.07;;;;;;;1.27;94.52;99389.39;1751443;81;25246;-68
2021/01/06 07:37:42;;;;;;;11.60;8.90;;;;;;;1.30;94.61;99390.56;1735527;82;25207;-67
2021/01/06 07:40:23;;;;;;;10.00;8.20;;;;;;;1.34;94.65;99389.53;1751471;81;25359;-68
2021/01/06 07:43:10;;;;;;;11.03;7.87;;;;;;;1.38;94.70;99384.59;1751433;81;25158;-69
2021/01/06 07:45:42;;;;;;;9.70;8.07;;;;;;;1.45;94.79;99384.70;1751316;81;25212;-68
2021/01/06 07:48:39;;;;;;;10.77;8.93;;;;;;;1.50;94.78;99387.56;1751477;81;25125;-68
2021/01/06 07:51:32;;;;;;;12.60;9.63;;;;;;;1.58;94.85;99379.83;1751429;81;25169;-67
2021/01/06 07:54:14;;;;;;;13.97;10.03;;;;;;;1.60;94.67;99378.00;1703874;83;25599;-68
2021/01/06 07:57:02;;;;;;;14.20;12.00;;;;;;;1.66;94.54;99372.55;1703835;84;25735;-68
2021/01/06 07:59:46;;;;;;;14.73;11.40;;;;;;;1.64;94.25;99377.41;1703738;84;25590;-67
2021/01/06 08:02:21;;;;;;;13.47;11.47;;;;;;;1.59;93.95;99384.55;1703956;84;25177;-67
2021/01/06 08:05:05;;;;;;;14.87;11.37;;;;;;;1.54;93.92;99383.45;1703158;84;25101;-66
2021/01/06 08:07:32;;;;;;;14.53;10.27;;;;;;;1.53;93.89;99374.47;1704049;84;25304;-67
2021/01/06 08:09:59;;;;;;;19.80;13.93;;;;;;;1.50;93.76;99385.80;1703858;84;25086;-67
2021/01/06 08:12:41;;;;;;;29.83;17.47;;;;;;;1.45;93.73;99379.52;1679652;84;25163;-67
2021/01/06 08:15:25;;;;;;;45.90;27.40;;;;;;;1.42;93.73;99378.81;1678428;84;25087;-67
2021/01/06 08:18:05;;;;;;;44.33;25.73;;;;;;;1.37;93.73;99385.48;1703835;84;25106;-67
2021/01/06 08:21:08;;;;;;;24.37;16.40;;;;;;;1.37;93.85;99385.48;1680124;84;25299;-68
2021/01/06 08:24:08;;;;;;;20.20;13.47;;;;;;;1.41;93.96;99380.58;1703092;84;25307;-67
2021/01/06 08:26:35;;;;;;;13.90;10.00;;;;;;;1.41;93.96;99381.88;1702471;84;25154;-66
2021/01/06 08:29:24;;;;;;;13.07;9.80;;;;;;;1.47;94.08;99389.39;1703781;84;25221;-67
2021/01/06 08:32:04;;;;;;;12.33;9.23;;;;;;;1.50;94.09;99385.80;1703883;83;25185;-68
2021/01/06 08:34:36;;;;;;;12.13;8.50;;;;;;;1.54;94.15;99389.92;1703862;84;25837;-68
2021/01/06 08:37:11;;;;;;;12.97;9.93;;;;;;;1.61;94.24;99385.31;1703435;83;25347;-67
2021/01/06 08:39:49;;;;;;;11.17;8.80;;;;;;;1.67;94.22;99391.06;1703746;84;25090;-67
2021/01/06 08:42:28;;;;;;;12.20;8.70;;;;;;;1.74;94.23;99389.03;1703422;84;25091;-67
2021/01/06 08:44:58;;;;;;;11.70;9.00;;;;;;;1.79;94.21;99385.81;1703907;84;25649;-68
2021/01/06 08:47:35;;;;;;;11.60;9.20;;;;;;;1.83;94.08;99386.51;1703661;83;25098;-68
2021/01/06 08:50:25;;;;;;;12.17;9.07;;;;;;;1.91;93.99;99388.73;1702984;83;25381;-68
2021/01/06 08:52:54;;;;;;;14.30;9.73;;;;;;;1.95;93.84;99386.41;1669875;85;25531;-68
2021/01/06 08:55:26;;;;;;;14.97;11.00;;;;;;;1.97;93.74;99378.09;1697922;83;25585;-67
2021/01/06 08:57:59;;;;;;;15.63;11.00;;;;;;;2.00;93.72;99379.25;1689470;83;25540;-67
2021/01/06 09:00:39;;;;;;;13.23;9.97;;;;;;;2.02;93.61;99378.25;1698394;83;25242;-67
2021/01/06 09:04:02;;;;;;;13.63;10.47;;;;;;;2.06;93.57;99372.45;1698430;83;25137;-67
2021/01/06 09:06:29;;;;;;;17.73;12.70;;;;;;;2.18;93.83;99376.27;1698246;83;25241;-67
2021/01/06 09:09:17;;;;;;;19.43;13.90;;;;;;;2.22;93.69;99376.02;1674657;83;25086;-67
2021/01/06 09:11:51;;;;;;;23.20;16.57;;;;;;;2.26;93.48;99384.96;1696931;84;25340;-67
2021/01/06 09:14:31;;;;;;;23.13;15.50;;;;;;;2.30;93.55;99378.73;1680545;85;25110;-69
2021/01/06 09:17:21;;;;;;;78.97;56.93;;;;;;;2.35;93.65;99386.67;1698358;83;25217;-68
2021/01/06 09:19:53;;;;;;;133.93;82.30;;;;;;;2.42;93.64;99384.63;1666996;84;25150;-69
2021/01/06 09:22:20;;;;;;;40.73;27.83;;;;;;;2.49;93.57;99379.51;1674981;84;25094;-68
2021/01/06 09:24:48;;;;;;;24.57;19.77;;;;;;;2.51;93.01;99372.95;1698404;83;25546;-68
2021/01/06 09:27:35;;;;;;;33.37;24.37;;;;;;;2.55;93.08;99377.92;1698231;83;25612;-68
2021/01/06 09:30:16;;;;;;;30.93;25.33;;;;;;;2.57;92.73;99377.85;1670126;85;25389;-68
2021/01/06 09:32:43;;;;;;;19.90;16.20;;;;;;;2.59;92.68;99374.72;1698324;83;25364;-68
2021/01/06 09:35:15;;;;;;;18.53;14.53;;;;;;;2.67;92.87;99380.38;1698307;83;25651;-68
2021/01/06 09:37:58;;;;;;;17.60;13.73;;;;;;;2.70;92.76;99381.97;1680454;85;25295;-66
2021/01/06 09:40:26;;;;;;;18.00;14.23;;;;;;;2.75;92.68;99372.22;1698299;83;25166;-67
2021/01/06 09:43:00;;;;;;;35.33;28.70;;;;;;;2.85;92.65;99369.98;1698225;83;25196;-67
2021/01/06 09:45:27;;;;;;;20.67;15.80;;;;;;;2.87;92.59;99358.61;1698295;83;25257;-67
2021/01/06 09:48:01;;;;;;;24.13;16.37;;;;;;;2.86;92.31;99356.09;1674557;84;25245;-68
2021/01/06 09:50:44;;;;;;;21.97;16.00;;;;;;;2.81;92.13;99358.91;1698082;83;25753;-67
2021/01/06 09:53:14;;;;;;;21.90;16.27;;;;;;;2.76;92.14;99354.41;1700847;83;25628;-68
2021/01/06 09:55:45;;;;;;;20.93;16.17;;;;;;;2.69;91.85;99354.34;1728777;82;25335;-67
2021/01/06 09:58:31;;;;;;;23.07;16.77;;;;;;;2.64;92.09;99350.66;1703820;83;25787;-68
2021/01/06 10:01:32;;;;;;;24.20;18.87;;;;;;;2.63;92.17;99345.11;1703781;83;25231;-68
2021/01/06 10:04:15;;;;;;;22.87;18.13;;;;;;;2.62;91.75;99355.56;1703821;83;25078;-67
2021/01/06 10:07:16;;;;;;;19.60;14.83;;;;;;;2.59;92.10;99353.48;1703884;83;25276;-68
2021/01/06 10:09:46;;;;;;;29.47;22.53;;;;;;;2.69;92.12;99360.36;1703915;83;25233;-67
2021/01/06 10:12:44;;;;;;;20.50;15.73;;;;;;;2.69;91.84;99356.94;1728449;82;25161;-66
2021/01/06 10:15:36;;;;;;;27.50;18.73;;;;;;;2.68;91.68;99357.41;1703938;83;25647;-68
2021/01/06 10:18:24;;;;;;;29.50;19.80;;;;;;;2.70;91.67;99352.97;1703904;83;25248;-67
2021/01/06 10:21:02;;;;;;;18.90;15.40;;;;;;;2.71;91.77;99352.50;1703971;83;25235;-66
2021/01/06 10:23:56;;;;;;;22.93;17.63;;;;;;;2.73;91.66;99350.22;1675760;85;25665;-67
2021/01/06 10:26:54;;;;;;;48.93;40.83;;;;;;;2.75;91.21;99351.45;1728857;82;25185;-67
2021/01/06 10:29:34;;;;;;;34.83;26.30;;;;;;;2.76;91.21;99347.45;1728894;82;25596;-68
2021/01/06 10:32:16;;;;;;;24.73;18.67;;;;;;;2.64;90.93;99342.88;1703966;83;25098;-68
2021/01/06 10:34:49;;;;;;;21.20;16.50;;;;;;;2.58;91.00;99339.27;1703845;83;25249;-68
2021/01/06 10:40:18;;;;;;;27.43;21.30;;;;;;;2.52;91.25;99337.83;1849728;76;27386;-67
2021/01/06 10:42:46;;;;;;;32.50;25.87;;;;;;;2.41;91.26;99341.39;1819824;77;25768;-67
2021/01/06 10:45:37;;;;;;;31.47;27.17;;;;;;;2.37;91.47;99342.48;1819834;78;25611;-67
2021/01/06 10:48:05;;;;;;;47.90;37.00;;;;;;;2.35;91.34;99332.16;1819767;78;25183;-66
2021/01/06 10:50:43;;;;;;;28.93;22.03;;;;;;;2.33;91.32;99334.44;1808008;78;25202;-67
2021/01/06 10:53:26;;;;;;;49.73;34.50;;;;;;;2.26;91.52;99332.59;1757536;80;25273;-69
2021/01/06 10:56:09;;;;;;;21.93;16.53;;;;;;;2.24;91.32;99330.53;1787091;79;25290;-67
2021/01/06 10:58:44;;;;;;;31.00;22.13;;;;;;;2.21;91.31;99325.48;1756923;80;25209;-67
2021/01/06 11:01:16;;;;;;;25.20;18.90;;;;;;;2.23;91.36;99323.22;1787361;79;25672;-67
2021/01/06 11:04:21;;;;;;;56.50;40.03;;;;;;;2.29;91.63;99322.06;1787619;80;25791;-66
2021/01/06 11:07:23;;;;;;;31.37;23.60;;;;;;;2.36;91.66;99319.58;1787602;79;25704;-66
2021/01/06 11:10:16;;;;;;;27.93;20.40;;;;;;;2.51;91.72;99315.37;1787580;79;25242;-67
2021/01/06 11:13:09;;;;;;;27.50;20.40;;;;;;;2.66;91.81;99315.06;1787453;79;25071;-68
2021/01/06 11:15:49;;;;;;;38.60;27.03;;;;;;;2.70;91.41;99318.34;1764367;79;25605;-68
2021/01/06 11:18:21;;;;;;;33.20;23.70;;;;;;;2.71;91.38;99309.65;1787569;79;25292;-67
2021/01/06 11:21:10;;;;;;;32.00;22.67;;;;;;;2.70;91.12;99313.15;1785228;79;25273;-67
2021/01/06 11:23:48;;;;;;;30.90;22.10;;;;;;;2.70;91.28;99310.55;1775287;80;25273;-67
2021/01/06 11:26:33;;;;;;;23.27;15.97;;;;;;;2.73;91.28;99306.07;1787484;80;25206;-67
2021/01/06 11:29:17;;;;;;;25.93;18.80;;;;;;;2.74;91.18;99308.20;1787436;80;25708;-67
2021/01/06 11:32:08;;;;;;;21.90;15.97;;;;;;;2.69;91.13;99298.03;1786743;79;25060;-66
2021/01/06 11:34:37;;;;;;;66.10;39.23;;;;;;;2.72;91.47;99301.78;1785182;79;25206;-68
2021/01/06 11:37:31;;;;;;;42.27;29.67;;;;;;;2.74;91.26;99297.81;1787504;80;25277;-68
2021/01/06 11:39:57;;;;;;;26.73;20.67;;;;;;;2.72;91.23;99298.36;1794838;78;25260;-68
2021/01/06 11:42:48;;;;;;;22.20;17.27;;;;;;;2.67;91.06;99297.75;1796334;78;25355;-68
2021/01/06 11:45:26;;;;;;;47.23;31.70;;;;;;;2.72;91.03;99289.27;1889304;76;27368;-66
2021/01/06 11:47:57;;;;;;;32.47;22.60;;;;;;;2.67;91.17;99286.89;1822551;77;25182;-66
2021/01/06 11:50:44;;;;;;;25.27;19.20;;;;;;;2.71;91.09;99292.77;1858973;77;25246;-67
2021/01/06 11:53:24;;;;;;;24.27;17.47;;;;;;;2.69;90.97;99288.95;1786363;80;25226;-66
2021/01/06 11:56:28;;;;;;;19.70;14.30;;;;;;;2.67;90.98;99284.30;1786524;79;25324;-66
2021/01/06 11:59:32;;;;;;;24.97;15.67;;;;;;;2.69;91.00;99279.86;1818995;78;25691;-66
2021/01/06 12:02:25;;;;;;;27.50;18.40;;;;;;;2.69;90.98;99281.62;1767408;80;25325;-67
2021/01/06 12:05:19;;;;;;;23.00;17.67;;;;;;;2.69;91.08;99279.03;1805178;78;25710;-67
2021/01/06 12:08:15;;;;;;;21.50;15.17;;;;;;;2.71;91.32;99284.51;1786365;79;25362;-68
2021/01/06 12:11:04;;;;;;;24.60;16.80;;;;;;;2.72;91.15;99279.70;1786267;80;25692;-67
2021/01/06 12:13:48;;;;;;;21.57;15.37;;;;;;;2.77;91.16;99271.69;1805263;78;25730;-67
2021/01/06 12:16:38;;;;;;;30.90;19.90;;;;;;;2.80;91.15;99272.84;1786386;80;25214;-66
2021/01/06 12:19:31;;;;;;;36.53;25.27;;;;;;;2.79;91.11;99274.57;1759425;79;25264;-66
2021/01/06 12:22:06;;;;;;;36.70;26.53;;;;;;;2.84;91.19;99269.62;1739355;80;25765;-67
2021/01/06 12:24:39;;;;;;;25.80;18.50;;;;;;;2.87;91.16;99268.17;1786447;80;25393;-66